This is the latest recevied weather packets stored in our database for station/object OK1KZE-6. If no packets are shown the sender has not sent any weather packets the latest 10 day(s).
| Time | Temp. | Humidity | Pressure | Rain* | Wind** | Luminosity | Snow |
|---|---|---|---|---|---|---|---|
| 1777686308 | 12.78° C | 51% | 1026.5 hPa | - | - | - | - |
| 1777686007 | 12.78° C | 51% | 1026.4 hPa | - | - | - | - |
| 1777685707 | 11.67° C | 58% | 1026.6 hPa | - | - | - | - |
| 1777685408 | 13.33° C | 51% | 1026.4 hPa | - | - | - | - |
| 1777684808 | 11.67° C | 57% | 1026.4 hPa | - | - | - | - |
| 1777684508 | 12.78° C | 54% | 1026.5 hPa | - | - | - | - |
| 1777684208 | 13.33° C | 51% | 1026.7 hPa | - | - | - | - |
| 1777683908 | 12.22° C | 54% | 1026.5 hPa | - | - | - | - |
| 1777683307 | 13.89° C | 49% | 1026.8 hPa | - | - | - | - |
| 1777683008 | 12.78° C | 55% | 1026.9 hPa | - | - | - | - |
| 1777682709 | 12.78° C | 54% | 1026.7 hPa | - | - | - | - |
| 1777682407 | 12.78° C | 54% | 1026.8 hPa | - | - | - | - |
| 1777682108 | 11.67° C | 57% | 1026.8 hPa | - | - | - | - |
| 1777681808 | 11.67° C | 58% | 1027 hPa | - | - | - | - |
| 1777681508 | 12.78° C | 54% | 1026.8 hPa | - | - | - | - |
| 1777681207 | 12.22° C | 56% | 1027.1 hPa | - | - | - | - |
| 1777680907 | 11.67° C | 57% | 1026.9 hPa | - | - | - | - |
| 1777680609 | 12.22° C | 56% | 1027 hPa | - | - | - | - |
| 1777680308 | 13.33° C | 52% | 1027.1 hPa | - | - | - | - |
| 1777680008 | 12.22° C | 55% | 1027.2 hPa | - | - | - | - |
| 1777679708 | 12.78° C | 54% | 1026.8 hPa | - | - | - | - |
| 1777679408 | 13.33° C | 52% | 1027 hPa | - | - | - | - |
| 1777679107 | 11.67° C | 57% | 1027.1 hPa | - | - | - | - |
| 1777678808 | 11.67° C | 58% | 1027.3 hPa | - | - | - | - |
| 1777678508 | 12.78° C | 56% | 1027.2 hPa | - | - | - | - |
* Rain since midnight (hover to see other rain measurements)
** Current wind speed in m/s (hover to see current wind gust speed)